Hlavní strana
METAR-TAF:

METAR-TAF

Letiště :

Ciudad de Guatemala, Guatemala

zeměpisná šířka: 14-35N, zeměpisná délka: 090-31W, výška: 1489 m

Aktuální stav počasí

Zpráva byla vytvořena před 49 minutami, v 22:00 UTC
Severní vítr 14 kt
Teplota 19°C
Vlhkost vzduchu 56%
Tlak 1026 hPa
Viditelnost 10 km a více
Polojasno ve výšce 2400 ft

METAR: MGGT 152200Z 36014KT 9999 SCT024 19/10 Q1026 A3030

Čas: 16:49 (22:49 UTC)

Předpověď počasí

Zpráva byla vytvořena před 5 hodinami a 49 minutami, v 17:00 UTC
Předpověď platná od 15 v 18 UTC do 16 v 18 UTC
Severní vítr 20 kt
Viditelnost 10 km a více
Skoro jasno ve výšce 1800 ft
Dočasný
od 15 v 18 UTC do 16 v 01 UTC
Severní vítr 16 kt s nárazy do 26 kt
Polojasno ve výšce 1800 ft
Změna
od 16 v 01 UTC do 16 v 03 UTC
Skoro jasno ve výšce 1600 ft

TAF: MGGT 151700Z 1518/1618 36020KT 9999 FEW018 TX23/1520Z TN13/1612Z TEMPO 1518/1601 36016G26KT SCT018 BECMG 1601/1603 FEW016

Stav a předpovědi počasí z více než 4 000 letišť (zprávy METAR a TAF).

Červené a žluté tečky na mapě představují dostupné meteorologické stanice.

Když kurzor umístíte na tečku, zobrazí se název stanice.

Pak kliknutím zobrazíte stav a předpověď počasí.

Chcete-li změnit mapu, kliknutím na zelené tlačítko se znaménkem +mapu přiblížíte, kliknutím na zelené tlačítko se znaménkem – mapu oddálíte a kliknutím na zelené šipky přejdete na sousední mapy.


METAR-TAF: